createdAt,value
2017-09-24T00:00:10.424Z,11.9
2017-09-24T00:01:09.466Z,12
2017-09-24T00:05:06.540Z,11.9
2017-09-24T00:09:02.859Z,11.9
2017-09-24T00:10:02.282Z,11.9
2017-09-24T00:12:01.086Z,12
2017-09-24T00:12:59.877Z,11.9
2017-09-24T00:13:59.044Z,11.9
2017-09-24T00:16:56.615Z,11.9
2017-09-24T00:18:54.947Z,11.9
2017-09-24T00:20:53.518Z,11.9
2017-09-24T00:22:51.823Z,11.9
2017-09-24T00:25:49.261Z,11.9
2017-09-24T00:26:48.555Z,11.9
2017-09-24T00:28:47.376Z,11.9
2017-09-24T00:29:46.030Z,11.9
2017-09-24T00:31:44.959Z,11.9
2017-09-24T00:32:43.753Z,11.9
2017-09-24T00:33:43.049Z,11.9
2017-09-24T00:34:41.971Z,11.9
2017-09-24T00:35:41.139Z,11.9
2017-09-24T00:36:40.685Z,11.9
2017-09-24T00:37:40.233Z,11.9
2017-09-24T00:38:39.148Z,11.9
2017-09-24T00:39:38.062Z,11.9
2017-09-24T00:40:37.102Z,11.9
2017-09-24T00:42:35.655Z,11.9
2017-09-24T00:43:34.945Z,11.9
2017-09-24T00:44:34.365Z,11.9
2017-09-24T00:45:33.160Z,11.9
2017-09-24T00:46:32.337Z,11.9
2017-09-24T00:48:31.167Z,11.9
2017-09-24T00:49:30.246Z,11.9
2017-09-24T00:50:29.574Z,11.9
2017-09-24T00:52:27.721Z,11.9
2017-09-24T00:53:26.763Z,11.9
2017-09-24T00:54:25.932Z,11.9
2017-09-24T00:55:25.476Z,11.9
2017-09-24T00:57:23.785Z,11.9
2017-09-24T00:58:23.075Z,11.9
2017-09-24T00:59:22.364Z,11.9
2017-09-24T01:00:21.272Z,11.9
2017-09-24T01:00:51.630Z,11.9
2017-09-24T01:01:21.736Z,11.9
2017-09-24T01:01:52.096Z,11.9
2017-09-24T01:03:19.071Z,11.9
2017-09-24T01:04:17.992Z,11.9
2017-09-24T01:05:17.157Z,11.9
2017-09-24T01:08:14.591Z,11.9
2017-09-24T01:09:14.552Z,11.9
2017-09-24T01:11:12.600Z,11.9
2017-09-24T01:11:42.955Z,11.9
2017-09-24T01:12:13.444Z,11.9
2017-09-24T01:12:43.922Z,11.9
2017-09-24T01:14:09.635Z,11.9
2017-09-24T01:15:09.313Z,11.9
2017-09-24T01:16:08.227Z,11.9
2017-09-24T01:17:08.152Z,12
2017-09-24T01:18:06.815Z,11.9
2017-09-24T01:19:06.231Z,11.9
2017-09-24T01:21:04.275Z,11.9
2017-09-24T01:23:02.954Z,11.9
2017-09-24T01:24:02.123Z,11.9
2017-09-24T01:26:00.548Z,11.9
2017-09-24T01:26:59.717Z,11.9
2017-09-24T01:28:58.272Z,11.9
2017-09-24T01:29:57.313Z,11.9
2017-09-24T01:30:56.479Z,11.9
2017-09-24T01:31:55.644Z,11.9
2017-09-24T01:32:55.321Z,11.9
2017-09-24T01:34:53.491Z,11.9
2017-09-24T01:35:52.777Z,11.9
2017-09-24T01:36:51.565Z,11.9
2017-09-24T01:37:50.739Z,11.9
2017-09-24T01:38:49.786Z,11.9
2017-09-24T01:39:49.457Z,11.9
2017-09-24T01:40:48.743Z,11.9
2017-09-24T01:41:47.534Z,11.9
2017-09-24T01:42:17.885Z,11.9
2017-09-24T01:42:48.244Z,11.9
2017-09-24T01:43:46.027Z,11.9
2017-09-24T01:44:45.605Z,11.9
2017-09-24T01:45:44.143Z,11.9
2017-09-24T01:49:40.717Z,11.9
2017-09-24T01:50:40.389Z,11.9
2017-09-24T01:51:39.432Z,11.9
2017-09-24T01:52:38.724Z,11.9
2017-09-24T01:53:08.945Z,11.9
2017-09-24T01:54:37.173Z,11.9
2017-09-24T01:55:07.647Z,11.9
2017-09-24T01:57:35.012Z,11.9
2017-09-24T01:58:34.052Z,11.9
2017-09-24T02:00:32.104Z,11.9
2017-09-24T02:03:30.297Z,11.9
2017-09-24T02:04:29.084Z,11.9
2017-09-24T02:06:27.889Z,11.9
2017-09-24T02:07:26.546Z,11.9
2017-09-24T02:08:25.958Z,11.9
2017-09-24T02:12:23.035Z,11.9
2017-09-24T02:13:21.700Z,11.9
2017-09-24T02:14:21.239Z,11.9
2017-09-24T02:15:20.153Z,11.9
2017-09-24T02:20:16.112Z,11.9
2017-09-24T02:21:15.530Z,11.9
2017-09-24T02:23:14.206Z,11.9
2017-09-24T02:24:12.868Z,11.9
2017-09-24T02:25:12.158Z,11.9
2017-09-24T02:26:11.696Z,11.9
2017-09-24T02:27:10.234Z,11.9
2017-09-24T02:32:06.572Z,11.9
2017-09-24T02:33:05.998Z,11.8
2017-09-24T02:35:04.424Z,11.8
2017-09-24T02:37:02.612Z,11.8
2017-09-24T02:40:59.577Z,11.9
2017-09-24T02:41:58.880Z,11.8
2017-09-24T02:42:57.677Z,11.8
2017-09-24T02:43:56.979Z,11.8
2017-09-24T02:44:56.027Z,11.8
2017-09-24T02:49:52.127Z,11.9
2017-09-24T02:51:50.439Z,11.8
2017-09-24T02:53:49.133Z,11.8
2017-09-24T02:57:45.204Z,11.8
2017-09-24T02:59:43.885Z,11.9
2017-09-24T03:03:40.588Z,11.9
2017-09-24T03:04:40.016Z,11.9
2017-09-24T03:06:38.454Z,11.8
2017-09-24T03:08:37.138Z,11.8
2017-09-24T03:09:35.806Z,11.8
2017-09-24T03:10:34.973Z,11.9
2017-09-24T03:11:05.711Z,11.9
2017-09-24T03:12:33.699Z,11.9
2017-09-24T03:14:31.625Z,11.9
2017-09-24T03:16:30.188Z,11.9
2017-09-24T03:17:29.496Z,11.9
2017-09-24T03:18:28.669Z,11.9
2017-09-24T03:20:26.971Z,11.9
2017-09-24T03:23:24.807Z,11.9
2017-09-24T03:24:24.115Z,11.9
2017-09-24T03:26:22.303Z,11.9
2017-09-24T03:27:21.476Z,11.9
2017-09-24T03:28:20.772Z,11.9
2017-09-24T03:29:20.314Z,11.9
2017-09-24T03:29:50.545Z,11.9
2017-09-24T03:33:16.674Z,11.8
2017-09-24T03:35:15.499Z,11.8
2017-09-24T03:36:14.173Z,11.8
2017-09-24T03:37:13.475Z,11.8
2017-09-24T03:38:12.656Z,11.8
2017-09-24T03:39:12.482Z,11.8
2017-09-24T03:40:10.804Z,11.8
2017-09-24T03:41:10.137Z,11.8
2017-09-24T03:42:09.560Z,11.9
2017-09-24T03:43:08.606Z,11.9
2017-09-24T03:44:07.647Z,11.8
2017-09-24T03:45:06.820Z,11.9
2017-09-24T03:46:06.120Z,11.9
2017-09-24T03:50:02.955Z,11.9
2017-09-24T03:52:01.135Z,11.9
2017-09-24T03:53:00.561Z,11.9
2017-09-24T03:54:58.490Z,11.9
2017-09-24T03:56:57.046Z,11.9
2017-09-24T03:57:56.219Z,11.9
2017-09-24T03:58:55.524Z,11.9
2017-09-24T03:59:54.577Z,11.9
2017-09-24T04:00:54.131Z,11.9
2017-09-24T04:01:53.690Z,11.9
2017-09-24T04:02:52.362Z,11.9
2017-09-24T04:03:51.659Z,11.9
2017-09-24T04:07:48.492Z,11.9
2017-09-24T04:08:47.544Z,11.9
2017-09-24T04:09:46.717Z,12
2017-09-24T04:11:45.402Z,12
2017-09-24T04:12:15.635Z,12
2017-09-24T04:15:41.767Z,12
2017-09-24T04:18:39.590Z,11.9
2017-09-24T04:20:38.021Z,12
2017-09-24T04:21:37.492Z,12
2017-09-24T04:22:08.140Z,12
2017-09-24T04:22:38.763Z,12
2017-09-24T04:23:09.159Z,12
2017-09-24T04:25:34.143Z,12
2017-09-24T04:28:31.460Z,11.9
2017-09-24T04:29:30.757Z,11.9
2017-09-24T04:32:28.202Z,11.9
2017-09-24T04:33:27.498Z,11.9
2017-09-24T04:36:24.944Z,11.9
2017-09-24T04:37:24.126Z,11.9
2017-09-24T04:39:22.428Z,11.9
2017-09-24T04:44:18.516Z,11.9
2017-09-24T04:45:17.680Z,11.9
2017-09-24T04:46:16.973Z,11.9
2017-09-24T04:48:15.535Z,11.9
2017-09-24T04:49:14.581Z,11.9
2017-09-24T04:50:13.630Z,11.9
2017-09-24T04:54:10.716Z,11.9
2017-09-24T04:56:08.645Z,11.9
2017-09-24T04:57:08.193Z,11.9
2017-09-24T04:58:07.367Z,11.9
2017-09-24T04:59:06.933Z,11.9
2017-09-24T05:01:04.998Z,11.9
2017-09-24T05:03:03.561Z,11.9
2017-09-24T05:06:01.257Z,12
2017-09-24T05:07:59.444Z,12
2017-09-24T05:08:58.738Z,12
2017-09-24T05:11:56.058Z,12
2017-09-24T05:12:55.357Z,12
2017-09-24T05:14:53.793Z,12
2017-09-24T05:15:53.093Z,12
2017-09-24T05:18:50.281Z,12
2017-09-24T05:19:49.457Z,12
2017-09-24T05:20:48.767Z,12
2017-09-24T05:22:47.333Z,12
2017-09-24T05:23:46.382Z,12
2017-09-24T05:24:45.426Z,12
2017-09-24T05:26:43.986Z,12
2017-09-24T05:27:43.416Z,12
2017-09-24T05:28:42.341Z,12
2017-09-24T05:29:41.514Z,12
2017-09-24T05:30:40.824Z,12
2017-09-24T05:31:40.251Z,12.1
2017-09-24T05:33:38.061Z,12
2017-09-24T05:34:37.497Z,12
2017-09-24T05:41:32.237Z,12
2017-09-24T05:46:28.081Z,12.1
2017-09-24T05:47:27.257Z,12.1
2017-09-24T05:48:26.805Z,12.1
2017-09-24T05:48:56.663Z,12.1
2017-09-24T05:50:24.527Z,12.1
2017-09-24T05:52:22.966Z,12.1
2017-09-24T05:56:19.920Z,12.1
2017-09-24T05:57:19.223Z,12.1
2017-09-24T05:58:18.397Z,12.1
2017-09-24T05:59:17.858Z,12.1
2017-09-24T06:00:16.790Z,12.1
2017-09-24T06:01:16.337Z,12.2
2017-09-24T06:02:15.132Z,12.2
2017-09-24T06:03:14.688Z,12.2
2017-09-24T06:04:13.350Z,12.2
2017-09-24T06:05:12.773Z,12.2
2017-09-24T06:06:12.071Z,12.2
2017-09-24T06:07:11.372Z,12.2
2017-09-24T06:08:10.303Z,12.2
2017-09-24T06:09:09.734Z,12.2
2017-09-24T06:11:07.920Z,12.2
2017-09-24T06:12:06.975Z,12.2
2017-09-24T06:14:05.802Z,12.2
2017-09-24T06:16:03.859Z,12.2
2017-09-24T06:18:02.544Z,12.2
2017-09-24T06:21:58.876Z,12.2
2017-09-24T06:22:58.181Z,12.3
2017-09-24T06:23:57.350Z,12.2
2017-09-24T06:25:55.905Z,12.3
2017-09-24T06:27:53.960Z,12.3
2017-09-24T06:32:50.176Z,12.3
2017-09-24T06:38:45.154Z,12.4
2017-09-24T06:41:43.224Z,12.4
2017-09-24T06:46:38.937Z,12.4
2017-09-24T06:53:33.292Z,12.3
2017-09-24T06:59:28.385Z,12.4
2017-09-24T07:02:26.588Z,12.3
2017-09-24T07:04:24.773Z,12.4
2017-09-24T07:05:24.206Z,12.4
2017-09-24T07:08:21.145Z,12.4
2017-09-24T07:08:51.629Z,12.4
2017-09-24T07:16:14.676Z,12.4
2017-09-24T07:22:10.286Z,12.4
2017-09-24T07:24:08.842Z,12.4
2017-09-24T07:26:07.022Z,12.4
2017-09-24T07:30:03.722Z,12.4
2017-09-24T07:33:01.674Z,12.4
2017-09-24T07:34:59.730Z,12.4
2017-09-24T07:36:58.293Z,12.5
2017-09-24T07:37:57.468Z,12.5
2017-09-24T07:39:56.026Z,12.5
2017-09-24T07:42:53.347Z,12.6
2017-09-24T07:43:52.510Z,12.6
2017-09-24T07:48:48.857Z,12.6
2017-09-24T07:49:47.782Z,12.6
2017-09-24T07:51:46.461Z,12.7
2017-09-24T07:52:45.510Z,12.7
2017-09-24T07:54:43.942Z,12.7
2017-09-24T07:55:43.239Z,12.7
2017-09-24T07:56:42.168Z,12.7
2017-09-24T07:57:41.344Z,12.7
2017-09-24T07:58:40.393Z,12.7
2017-09-24T08:01:38.346Z,12.7
2017-09-24T08:02:08.972Z,12.7
2017-09-24T08:03:36.838Z,12.7
2017-09-24T08:04:35.754Z,12.7
2017-09-24T08:05:35.017Z,12.7
2017-09-24T08:09:31.983Z,12.7
2017-09-24T08:11:30.164Z,12.7
2017-09-24T08:12:29.596Z,12.7
2017-09-24T08:13:28.900Z,12.7
2017-09-24T08:19:24.005Z,12.7
2017-09-24T08:20:23.311Z,12.7
2017-09-24T08:26:18.790Z,12.8
2017-09-24T08:28:16.850Z,12.7
2017-09-24T08:29:15.901Z,12.8
2017-09-24T08:31:14.341Z,12.7
2017-09-24T08:35:11.048Z,12.7
2017-09-24T08:39:08.024Z,12.7
2017-09-24T08:40:07.200Z,12.6
2017-09-24T08:41:06.752Z,12.6
2017-09-24T08:55:54.940Z,12.7
2017-09-24T08:56:53.862Z,12.8
2017-09-24T08:57:24.220Z,12.8
2017-09-24T09:00:50.975Z,12.8
2017-09-24T09:01:50.273Z,12.8
2017-09-24T09:02:49.573Z,12.8
2017-09-24T09:03:48.381Z,12.9
2017-09-24T09:04:47.809Z,12.9
2017-09-24T09:05:46.856Z,12.9
2017-09-24T09:07:44.915Z,12.9
2017-09-24T09:09:43.346Z,12.9
2017-09-24T09:12:41.164Z,13
2017-09-24T09:13:40.091Z,13
2017-09-24T09:15:39.281Z,12.9
2017-09-24T09:16:38.084Z,13
2017-09-24T09:17:37.254Z,12.9
2017-09-24T09:19:36.067Z,12.9
2017-09-24T09:20:34.996Z,12.9
2017-09-24T09:21:34.172Z,13
2017-09-24T09:23:32.731Z,13
2017-09-24T09:25:31.165Z,13
2017-09-24T09:26:30.709Z,13
2017-09-24T09:28:28.891Z,13
2017-09-24T09:29:28.318Z,13
2017-09-24T09:30:26.865Z,13
2017-09-24T09:31:26.053Z,13
2017-09-24T09:32:25.740Z,13
2017-09-24T09:33:25.042Z,13
2017-09-24T09:34:23.713Z,13
2017-09-24T09:35:22.887Z,13.1
2017-09-24T09:36:22.562Z,13.1
2017-09-24T09:38:20.994Z,13.1
2017-09-24T09:38:51.606Z,13.1
2017-09-24T09:39:22.211Z,13.1
2017-09-24T09:39:52.571Z,13.1
2017-09-24T09:42:17.674Z,13.1
2017-09-24T09:44:16.604Z,13
2017-09-24T09:50:11.957Z,13
2017-09-24T09:50:42.185Z,13
2017-09-24T09:52:10.041Z,13
2017-09-24T09:54:07.966Z,13
2017-09-24T09:55:07.893Z,13
2017-09-24T09:56:06.595Z,13
2017-09-24T09:57:05.893Z,13
2017-09-24T09:58:05.061Z,13
2017-09-24T09:59:04.113Z,13
2017-09-24T10:01:03.061Z,13
2017-09-24T10:02:01.985Z,12.9
2017-09-24T10:03:01.159Z,12.9
2017-09-24T10:04:59.718Z,12.9
2017-09-24T10:08:56.665Z,12.9
2017-09-24T10:09:55.840Z,12.9
2017-09-24T10:10:54.901Z,12.9
2017-09-24T10:11:53.956Z,12.9
2017-09-24T10:12:53.257Z,12.9
2017-09-24T10:13:52.179Z,12.9
2017-09-24T10:14:51.989Z,12.9
2017-09-24T10:16:50.301Z,12.9
2017-09-24T10:17:49.535Z,12.9
2017-09-24T10:18:48.453Z,12.9
2017-09-24T10:19:47.505Z,12.8
2017-09-24T10:20:47.186Z,12.9
2017-09-24T10:21:17.545Z,12.9
2017-09-24T10:23:44.672Z,12.9
2017-09-24T10:24:43.748Z,12.9
2017-09-24T10:25:43.393Z,12.8
2017-09-24T10:26:42.568Z,12.8
2017-09-24T10:27:41.489Z,12.8
2017-09-24T10:28:40.660Z,12.8
2017-09-24T10:29:39.712Z,12.8
2017-09-24T10:30:09.955Z,12.8
2017-09-24T10:30:40.443Z,12.8
2017-09-24T10:31:11.057Z,12.8
2017-09-24T10:34:36.185Z,12.8
2017-09-24T10:35:35.369Z,12.8
2017-09-24T10:36:34.542Z,12.8
2017-09-24T10:38:32.472Z,12.7
2017-09-24T10:39:32.147Z,12.7
2017-09-24T10:41:30.702Z,12.6
2017-09-24T10:43:29.267Z,12.7
2017-09-24T10:44:28.316Z,12.7
2017-09-24T10:45:27.491Z,12.7
2017-09-24T10:46:26.786Z,12.7
2017-09-24T10:47:26.087Z,12.7
2017-09-24T10:48:25.542Z,12.7
2017-09-24T10:49:24.358Z,12.7
2017-09-24T10:50:23.663Z,12.7
2017-09-24T10:52:21.475Z,12.8
2017-09-24T10:53:21.412Z,12.7
2017-09-24T10:54:20.465Z,12.7
2017-09-24T10:55:19.548Z,12.8
2017-09-24T10:56:18.593Z,12.8
2017-09-24T10:58:17.028Z,12.8
2017-09-24T10:59:16.081Z,12.7
2017-09-24T11:00:16.020Z,12.8
2017-09-24T11:03:13.459Z,12.8
2017-09-24T11:05:11.390Z,12.8
2017-09-24T11:08:09.462Z,12.8
2017-09-24T11:09:08.639Z,12.8
2017-09-24T11:10:07.814Z,12.8
2017-09-24T11:12:06.387Z,12.9
2017-09-24T11:13:05.681Z,12.9
2017-09-24T11:15:03.737Z,12.9
2017-09-24T11:17:02.678Z,13
2017-09-24T11:19:00.745Z,13
2017-09-24T11:19:59.807Z,13
2017-09-24T11:20:59.106Z,13
2017-09-24T11:21:58.408Z,13.1
2017-09-24T11:23:56.842Z,13.1
2017-09-24T11:27:53.550Z,13.2
2017-09-24T11:32:49.763Z,13.2
2017-09-24T11:34:48.079Z,13.2
2017-09-24T11:44:40.218Z,13.1
2017-09-24T11:45:39.515Z,13.1
2017-09-24T11:46:38.694Z,13.1
2017-09-24T11:54:32.577Z,13.2
2017-09-24T12:16:15.479Z,13.4
2017-09-24T12:22:10.325Z,13.4
2017-09-24T12:25:08.410Z,13.5
2017-09-24T12:33:02.538Z,13.4
2017-09-24T12:38:57.766Z,13.4
2017-09-24T13:11:31.773Z,13.7
2017-09-24T13:13:30.214Z,13.7
2017-09-24T13:35:13.493Z,13.8
2017-09-24T13:38:11.308Z,13.8
2017-09-24T13:39:10.236Z,13.9
2017-09-24T13:40:09.416Z,13.8
2017-09-24T13:41:09.229Z,13.8
2017-09-24T13:43:07.571Z,13.9
2017-09-24T14:31:29.737Z,14.4
2017-09-24T14:33:28.430Z,14.4
2017-09-24T15:00:08.026Z,14.3
2017-09-24T15:01:07.463Z,14.3
2017-09-24T15:03:05.653Z,14.3
2017-09-24T15:04:05.211Z,14.3
2017-09-24T15:06:03.269Z,14.3
2017-09-24T15:10:59.360Z,14.2
2017-09-24T15:16:55.217Z,14.2
2017-09-24T15:29:44.895Z,14.2
2017-09-24T15:30:44.191Z,14.2
2017-09-24T15:34:41.149Z,14.2
2017-09-24T15:35:40.447Z,14.2
2017-09-24T15:37:39.008Z,14.2
2017-09-24T15:38:09.490Z,14.2
2017-09-24T15:39:37.350Z,14.2
2017-09-24T15:44:33.693Z,14.2
2017-09-24T16:58:36.563Z,13.9
2017-09-24T16:59:35.734Z,13.9
2017-09-24T17:07:29.611Z,13.8
2017-09-24T17:08:28.910Z,13.8
2017-09-24T17:09:28.208Z,13.8
2017-09-24T17:10:27.388Z,13.8
2017-09-24T17:10:57.874Z,13.8
2017-09-24T17:12:25.856Z,13.8
2017-09-24T17:14:24.796Z,13.8
2017-09-24T17:17:21.872Z,13.8
2017-09-24T17:18:21.986Z,13.8
2017-09-24T17:19:20.539Z,13.8
2017-09-24T17:22:17.993Z,13.8
2017-09-24T17:25:15.938Z,13.8
2017-09-24T17:27:13.869Z,13.8
2017-09-24T17:28:13.544Z,13.8
2017-09-24T17:29:12.844Z,13.8
2017-09-24T17:34:09.060Z,13.8
2017-09-24T17:38:05.767Z,13.7
2017-09-24T17:39:05.323Z,13.8
2017-09-24T17:41:03.631Z,13.7
2017-09-24T17:45:00.587Z,13.7
2017-09-24T17:47:58.288Z,13.7
2017-09-24T17:48:57.329Z,13.7
2017-09-24T17:49:56.254Z,13.7
2017-09-24T17:51:55.064Z,13.7
2017-09-24T17:52:53.984Z,13.7
2017-09-24T17:53:53.662Z,13.7
2017-09-24T17:54:52.838Z,13.7
2017-09-24T17:55:52.020Z,13.7
2017-09-24T18:12:38.743Z,13.7
2017-09-24T18:15:36.818Z,13.6
2017-09-24T18:16:35.739Z,13.7
2017-09-24T18:18:34.317Z,13.7
2017-09-24T18:19:33.649Z,13.6
2017-09-24T18:20:32.966Z,13.6
2017-09-24T18:22:31.534Z,13.6
2017-09-24T18:23:30.730Z,13.6
2017-09-24T18:24:29.957Z,13.6
2017-09-24T18:25:29.386Z,13.6
2017-09-24T18:26:28.325Z,13.6
2017-09-24T18:27:27.391Z,13.6
2017-09-24T18:28:26.695Z,13.6
2017-09-24T18:30:25.128Z,13.6
2017-09-24T18:31:24.311Z,13.6
2017-09-24T18:32:23.741Z,13.6
2017-09-24T18:33:22.923Z,13.6
2017-09-24T18:34:22.101Z,13.6
2017-09-24T18:35:21.276Z,13.6
2017-09-24T18:36:20.453Z,13.6
2017-09-24T18:36:51.067Z,13.6
2017-09-24T18:37:21.181Z,13.6
2017-09-24T18:37:51.804Z,13.6
2017-09-24T18:38:22.553Z,13.6
2017-09-24T18:38:53.188Z,13.6
2017-09-24T18:41:16.920Z,13.6
2017-09-24T18:42:16.918Z,13.6
2017-09-24T18:45:13.993Z,13.6
2017-09-24T18:47:12.434Z,13.6
2017-09-24T18:47:42.541Z,13.6
2017-09-24T18:49:10.669Z,13.6
2017-09-24T18:49:40.783Z,13.6
2017-09-24T19:04:58.047Z,13.5
2017-09-24T19:05:57.722Z,13.5
2017-09-24T19:06:56.532Z,13.5
2017-09-24T19:13:51.389Z,13.5
2017-09-24T19:14:50.564Z,13.5
2017-09-24T19:30:38.152Z,13.5
2017-09-24T19:31:08.512Z,13.5
2017-09-24T19:32:36.377Z,13.5
2017-09-24T19:36:33.713Z,13.4
2017-09-24T19:39:31.281Z,13.4
2017-09-24T19:43:28.240Z,13.4
2017-09-24T19:44:27.412Z,13.4
2017-09-24T19:50:22.270Z,13.4
2017-09-24T19:51:21.826Z,13.4
2017-09-24T19:52:21.131Z,13.4
2017-09-24T19:53:20.429Z,13.4
2017-09-24T19:54:19.742Z,13.4
2017-09-24T19:55:19.043Z,13.4
2017-09-24T19:56:18.093Z,13.4
2017-09-24T19:58:16.791Z,13.4
2017-09-24T19:59:16.223Z,13.3
2017-09-24T20:00:15.151Z,13.3
2017-09-24T20:02:13.341Z,13.3
2017-09-24T20:03:12.638Z,13.3
2017-09-24T20:07:09.592Z,13.3
2017-09-24T20:09:07.902Z,13.3
2017-09-24T20:10:07.207Z,13.2
2017-09-24T20:11:06.257Z,13.2
2017-09-24T20:12:05.439Z,13.2
2017-09-24T20:13:05.119Z,13.2
2017-09-24T20:14:04.427Z,13.2
2017-09-24T20:17:02.008Z,13.2
2017-09-24T20:19:00.186Z,13.1
2017-09-24T20:20:58.459Z,13.1
2017-09-24T20:21:58.050Z,13.1
2017-09-24T20:23:55.980Z,13.1
2017-09-24T20:24:55.800Z,13.1
2017-09-24T20:25:54.855Z,13.1
2017-09-24T20:26:25.108Z,13.1
2017-09-24T20:26:55.223Z,13.1
2017-09-24T20:27:53.274Z,13
2017-09-24T20:28:52.457Z,13
2017-09-24T20:29:51.634Z,13
2017-09-24T20:30:50.811Z,13
2017-09-24T20:31:50.237Z,13
2017-09-24T20:32:49.540Z,13
2017-09-24T20:33:48.588Z,13
2017-09-24T20:34:47.776Z,13
2017-09-24T20:35:47.074Z,13
2017-09-24T20:37:45.387Z,13
2017-09-24T20:38:44.580Z,12.9
2017-09-24T20:39:43.627Z,12.9
2017-09-24T20:41:42.322Z,12.9
2017-09-24T20:42:41.621Z,12.9
2017-09-24T20:43:40.925Z,12.9
2017-09-24T20:44:40.221Z,13
2017-09-24T20:45:39.016Z,13
2017-09-24T20:46:38.564Z,13
2017-09-24T20:48:36.624Z,13
2017-09-24T20:49:36.051Z,13
2017-09-24T20:51:34.743Z,13
2017-09-24T20:52:33.168Z,13
2017-09-24T20:53:33.222Z,13
2017-09-24T20:54:32.016Z,13
2017-09-24T20:55:31.447Z,13
2017-09-24T20:57:29.765Z,13
2017-09-24T20:58:28.936Z,13
2017-09-24T20:59:28.623Z,13
2017-09-24T21:00:27.170Z,13
2017-09-24T21:01:26.594Z,13
2017-09-24T21:02:26.025Z,13
2017-09-24T21:03:25.202Z,13
2017-09-24T21:04:24.126Z,13
2017-09-24T21:07:22.077Z,13.1
2017-09-24T21:07:52.697Z,13.1
2017-09-24T21:09:20.807Z,13.1
2017-09-24T21:10:19.726Z,13.1
2017-09-24T21:11:18.648Z,13.1
2017-09-24T21:12:17.950Z,13.1
2017-09-24T21:13:17.248Z,13.1
2017-09-24T21:14:16.545Z,13.1
2017-09-24T21:15:15.846Z,13.1
2017-09-24T21:16:14.772Z,13.1
2017-09-24T21:17:14.196Z,13.1
2017-09-24T21:18:13.498Z,13.1
2017-09-24T21:18:44.143Z,13.1
2017-09-24T21:20:11.627Z,13.1
2017-09-24T21:21:10.931Z,13.1
2017-09-24T21:22:10.229Z,13.1
2017-09-24T21:23:09.305Z,13.1
2017-09-24T21:24:08.478Z,13.1
2017-09-24T21:25:07.792Z,13.1
2017-09-24T21:26:06.974Z,13.1
2017-09-24T21:27:06.272Z,13.1
2017-09-24T21:28:05.569Z,13.1
2017-09-24T21:29:04.874Z,13.1
2017-09-24T21:30:03.926Z,13.1
2017-09-24T21:32:02.383Z,13.1
2017-09-24T21:33:01.694Z,13.1
2017-09-24T21:34:00.998Z,13.1
2017-09-24T21:35:00.304Z,13.1
2017-09-24T21:35:59.604Z,13.1
2017-09-24T21:36:58.655Z,13.1
2017-09-24T21:37:57.448Z,13.1
2017-09-24T21:38:57.248Z,13.1
2017-09-24T21:39:56.037Z,13.1
2017-09-24T21:40:55.459Z,13.1
2017-09-24T21:41:54.757Z,13.1
2017-09-24T21:42:53.426Z,13.1
2017-09-24T21:43:53.353Z,13.1
2017-09-24T21:44:52.020Z,13.1
2017-09-24T21:45:51.323Z,13.1
2017-09-24T21:46:50.496Z,13.1
2017-09-24T21:47:49.675Z,13.1
2017-09-24T21:48:48.854Z,13.1
2017-09-24T21:49:48.407Z,13.1
2017-09-24T21:50:18.515Z,13.1
2017-09-24T21:51:46.885Z,13
2017-09-24T21:52:46.185Z,13
2017-09-24T21:53:45.355Z,13
2017-09-24T21:54:43.900Z,13
2017-09-24T21:55:43.705Z,13
2017-09-24T21:56:43.010Z,13
2017-09-24T21:57:41.946Z,13
2017-09-24T21:58:40.866Z,13
2017-09-24T21:59:40.801Z,13
2017-09-24T22:00:39.594Z,13
2017-09-24T22:01:10.458Z,13
2017-09-24T22:01:40.816Z,13
2017-09-24T22:02:37.986Z,13
2017-09-24T22:03:37.156Z,12.9
2017-09-24T22:04:36.586Z,12.9
2017-09-24T22:05:36.012Z,12.9
2017-09-24T22:06:35.317Z,12.9
2017-09-24T22:07:34.103Z,12.9
2017-09-24T22:08:33.412Z,12.9
2017-09-24T22:09:32.593Z,12.9
2017-09-24T22:10:31.894Z,12.8
2017-09-24T22:11:30.946Z,12.8
2017-09-24T22:12:30.253Z,12.8
2017-09-24T22:13:29.682Z,12.8
2017-09-24T22:14:28.735Z,12.8
2017-09-24T22:15:28.032Z,12.8
2017-09-24T22:16:27.082Z,12.8
2017-09-24T22:17:26.377Z,12.7
2017-09-24T22:18:25.426Z,12.7
2017-09-24T22:19:24.762Z,12.7
2017-09-24T22:20:24.190Z,12.7
2017-09-24T22:21:23.115Z,12.6
2017-09-24T22:22:22.413Z,12.6
2017-09-24T22:23:21.715Z,12.6
2017-09-24T22:24:21.138Z,12.6
2017-09-24T22:25:20.446Z,12.5
2017-09-24T22:26:19.367Z,12.5
2017-09-24T22:27:18.791Z,12.5
2017-09-24T22:28:17.962Z,12.5
2017-09-24T22:29:17.392Z,12.5
2017-09-24T22:30:16.061Z,12.4
2017-09-24T22:31:15.483Z,12.4
2017-09-24T22:32:14.532Z,12.4
2017-09-24T22:33:13.707Z,12.3
2017-09-24T22:34:12.887Z,12.3
2017-09-24T22:35:11.935Z,12.3
2017-09-24T22:36:11.359Z,12.3
2017-09-24T22:37:10.954Z,12.3
2017-09-24T22:38:09.628Z,12.3
2017-09-24T22:39:08.551Z,12.2
2017-09-24T22:40:08.615Z,12.2
2017-09-24T22:41:07.286Z,12.2
2017-09-24T22:43:05.845Z,12.2
2017-09-24T22:44:05.271Z,12.1
2017-09-24T22:45:04.196Z,12.1
2017-09-24T22:46:03.493Z,12.1
2017-09-24T22:47:02.916Z,12.1
2017-09-24T22:48:02.340Z,12.1
2017-09-24T22:49:01.016Z,12.1
2017-09-24T22:50:00.191Z,12
2017-09-24T22:50:59.370Z,12
2017-09-24T22:51:58.797Z,12
2017-09-24T22:52:57.967Z,12
2017-09-24T22:53:57.135Z,12
2017-09-24T22:54:56.185Z,12
2017-09-24T22:55:55.355Z,12
2017-09-24T22:56:54.408Z,12
2017-09-24T22:58:52.970Z,12
2017-09-24T22:59:51.885Z,12
2017-09-24T23:00:51.815Z,12
2017-09-24T23:01:51.122Z,12
2017-09-24T23:02:50.289Z,12
2017-09-24T23:03:48.966Z,12
2017-09-24T23:04:48.269Z,12
2017-09-24T23:05:47.440Z,12
2017-09-24T23:06:46.868Z,12.1
2017-09-24T23:07:46.296Z,12
2017-09-24T23:08:44.957Z,12
2017-09-24T23:09:44.255Z,12
2017-09-24T23:11:42.817Z,12
2017-09-24T23:12:41.735Z,12
2017-09-24T23:13:41.531Z,12
2017-09-24T23:14:40.080Z,12
2017-09-24T23:15:39.760Z,12
2017-09-24T23:16:38.933Z,12
2017-09-24T23:17:38.121Z,12
2017-09-24T23:18:37.551Z,12
2017-09-24T23:19:35.970Z,12
2017-09-24T23:20:35.898Z,12
2017-09-24T23:21:34.692Z,12
2017-09-24T23:22:34.129Z,12
2017-09-24T23:23:33.807Z,12
2017-09-24T23:24:32.608Z,12
2017-09-24T23:25:31.779Z,11.9
2017-09-24T23:26:30.831Z,11.9
2017-09-24T23:28:29.132Z,11.9
2017-09-24T23:29:28.308Z,11.9
2017-09-24T23:30:27.486Z,11.9
2017-09-24T23:31:26.535Z,11.9
2017-09-24T23:32:26.466Z,11.9
2017-09-24T23:33:25.007Z,11.9
2017-09-24T23:34:24.322Z,11.9
2017-09-24T23:35:23.372Z,11.9
2017-09-24T23:36:22.791Z,11.9
2017-09-24T23:37:21.962Z,11.9
2017-09-24T23:38:21.010Z,11.8
2017-09-24T23:39:20.306Z,11.8
2017-09-24T23:40:19.736Z,11.8
2017-09-24T23:41:18.662Z,11.8
2017-09-24T23:42:17.965Z,11.8
2017-09-24T23:43:17.388Z,11.8
2017-09-24T23:44:16.949Z,11.8
2017-09-24T23:45:15.749Z,11.8
2017-09-24T23:46:14.932Z,11.8
2017-09-24T23:47:13.973Z,11.8
2017-09-24T23:48:13.015Z,11.8
2017-09-24T23:49:12.313Z,11.9
2017-09-24T23:50:11.489Z,11.9
2017-09-24T23:51:10.911Z,11.9
2017-09-24T23:52:09.972Z,11.9
2017-09-24T23:53:09.020Z,11.9
2017-09-24T23:54:08.195Z,11.9
2017-09-24T23:55:07.240Z,11.9
2017-09-24T23:56:07.050Z,11.9
2017-09-24T23:57:05.843Z,11.9
2017-09-24T23:58:05.014Z,11.9
2017-09-24T23:59:04.430Z,11.9
